sensor_id;sensor_type;location;lat;lon;timestamp;temperature;humidity
27534;DHT22;14973;51.460;7.008;2023-04-10T00:00:23;9.60;99.90
27534;DHT22;14973;51.460;7.008;2023-04-10T00:02:49;9.60;99.90
27534;DHT22;14973;51.460;7.008;2023-04-10T00:05:14;9.60;99.90
27534;DHT22;14973;51.460;7.008;2023-04-10T00:07:40;9.50;99.90
27534;DHT22;14973;51.460;7.008;2023-04-10T00:10:06;9.50;99.90
27534;DHT22;14973;51.460;7.008;2023-04-10T00:12:31;9.60;99.90
27534;DHT22;14973;51.460;7.008;2023-04-10T00:14:57;9.60;99.90
27534;DHT22;14973;51.460;7.008;2023-04-10T00:17:23;9.60;99.90
27534;DHT22;14973;51.460;7.008;2023-04-10T00:19:49;9.60;99.90
27534;DHT22;14973;51.460;7.008;2023-04-10T00:22:14;9.60;99.90
27534;DHT22;14973;51.460;7.008;2023-04-10T00:24:40;9.60;99.90
27534;DHT22;14973;51.460;7.008;2023-04-10T00:27:05;9.60;99.90
27534;DHT22;14973;51.460;7.008;2023-04-10T00:29:31;9.60;99.90
27534;DHT22;14973;51.460;7.008;2023-04-10T00:31:56;9.60;99.90
27534;DHT22;14973;51.460;7.008;2023-04-10T00:34:22;9.60;99.90
27534;DHT22;14973;51.460;7.008;2023-04-10T00:36:48;9.70;99.90
27534;DHT22;14973;51.460;7.008;2023-04-10T00:39:13;9.60;99.90
27534;DHT22;14973;51.460;7.008;2023-04-10T00:41:39;9.70;99.90
27534;DHT22;14973;51.460;7.008;2023-04-10T00:44:04;9.70;99.90
27534;DHT22;14973;51.460;7.008;2023-04-10T00:46:30;9.70;99.90
27534;DHT22;14973;51.460;7.008;2023-04-10T00:48:56;9.60;99.90
27534;DHT22;14973;51.460;7.008;2023-04-10T00:51:21;9.60;99.90
27534;DHT22;14973;51.460;7.008;2023-04-10T00:53:47;9.60;99.90
27534;DHT22;14973;51.460;7.008;2023-04-10T00:56:15;9.60;99.90
27534;DHT22;14973;51.460;7.008;2023-04-10T00:58:41;9.60;99.90
27534;DHT22;14973;51.460;7.008;2023-04-10T01:01:07;9.60;99.90
27534;DHT22;14973;51.460;7.008;2023-04-10T01:03:32;9.60;99.90
27534;DHT22;14973;51.460;7.008;2023-04-10T01:06:07;9.60;99.90
27534;DHT22;14973;51.460;7.008;2023-04-10T01:11:06;9.60;99.90
27534;DHT22;14973;51.460;7.008;2023-04-10T01:13:35;9.60;99.90
27534;DHT22;14973;51.460;7.008;2023-04-10T01:16:04;9.60;99.90
27534;DHT22;14973;51.460;7.008;2023-04-10T01:18:39;9.60;99.90
27534;DHT22;14973;51.460;7.008;2023-04-10T01:21:07;9.60;99.90
27534;DHT22;14973;51.460;7.008;2023-04-10T01:26:03;9.50;99.90
27534;DHT22;14973;51.460;7.008;2023-04-10T01:31:16;9.40;99.90
27534;DHT22;14973;51.460;7.008;2023-04-10T01:33:43;9.50;99.90
27534;DHT22;14973;51.460;7.008;2023-04-10T01:36:11;9.50;99.90
27534;DHT22;14973;51.460;7.008;2023-04-10T01:38:42;9.50;99.90
27534;DHT22;14973;51.460;7.008;2023-04-10T01:41:08;9.50;99.90
27534;DHT22;14973;51.460;7.008;2023-04-10T01:43:34;9.50;99.90
27534;DHT22;14973;51.460;7.008;2023-04-10T01:46:00;9.40;99.90
27534;DHT22;14973;51.460;7.008;2023-04-10T01:48:26;9.50;99.90
27534;DHT22;14973;51.460;7.008;2023-04-10T01:50:53;9.50;99.90
27534;DHT22;14973;51.460;7.008;2023-04-10T01:53:19;9.50;99.90
27534;DHT22;14973;51.460;7.008;2023-04-10T01:55:44;9.40;99.90
27534;DHT22;14973;51.460;7.008;2023-04-10T01:58:10;9.40;99.90
27534;DHT22;14973;51.460;7.008;2023-04-10T02:00:37;9.40;99.90
27534;DHT22;14973;51.460;7.008;2023-04-10T02:03:03;9.30;99.90
27534;DHT22;14973;51.460;7.008;2023-04-10T02:05:29;9.30;99.90
27534;DHT22;14973;51.460;7.008;2023-04-10T02:08:04;9.30;99.90
27534;DHT22;14973;51.460;7.008;2023-04-10T02:10:43;9.30;99.90
27534;DHT22;14973;51.460;7.008;2023-04-10T02:13:09;9.20;99.90
27534;DHT22;14973;51.460;7.008;2023-04-10T02:15:35;9.30;99.90
27534;DHT22;14973;51.460;7.008;2023-04-10T02:18:01;9.20;99.90
27534;DHT22;14973;51.460;7.008;2023-04-10T02:20:29;9.30;99.90
27534;DHT22;14973;51.460;7.008;2023-04-10T02:22:55;9.20;99.90
27534;DHT22;14973;51.460;7.008;2023-04-10T02:25:21;9.30;99.90
27534;DHT22;14973;51.460;7.008;2023-04-10T02:27:46;9.30;99.90
27534;DHT22;14973;51.460;7.008;2023-04-10T02:30:12;9.40;99.90
27534;DHT22;14973;51.460;7.008;2023-04-10T02:32:37;9.40;99.90
27534;DHT22;14973;51.460;7.008;2023-04-10T02:35:03;9.40;99.90
27534;DHT22;14973;51.460;7.008;2023-04-10T02:37:29;9.30;99.90
27534;DHT22;14973;51.460;7.008;2023-04-10T02:39:54;9.30;99.90
27534;DHT22;14973;51.460;7.008;2023-04-10T02:42:20;9.20;99.90
27534;DHT22;14973;51.460;7.008;2023-04-10T02:44:46;9.20;99.90
27534;DHT22;14973;51.460;7.008;2023-04-10T02:47:12;9.20;99.90
27534;DHT22;14973;51.460;7.008;2023-04-10T02:49:37;9.20;99.90
27534;DHT22;14973;51.460;7.008;2023-04-10T02:52:03;9.20;99.90
27534;DHT22;14973;51.460;7.008;2023-04-10T02:54:28;9.20;99.90
27534;DHT22;14973;51.460;7.008;2023-04-10T02:56:55;9.10;99.90
27534;DHT22;14973;51.460;7.008;2023-04-10T02:59:21;9.10;99.90
27534;DHT22;14973;51.460;7.008;2023-04-10T03:01:47;9.10;99.90
27534;DHT22;14973;51.460;7.008;2023-04-10T03:04:13;9.10;99.90
27534;DHT22;14973;51.460;7.008;2023-04-10T03:06:38;9.10;99.90
27534;DHT22;14973;51.460;7.008;2023-04-10T03:09:04;9.00;99.90
27534;DHT22;14973;51.460;7.008;2023-04-10T03:11:30;9.10;99.90
27534;DHT22;14973;51.460;7.008;2023-04-10T03:13:56;9.10;99.90
27534;DHT22;14973;51.460;7.008;2023-04-10T03:16:24;9.10;99.90
27534;DHT22;14973;51.460;7.008;2023-04-10T03:18:50;9.10;99.90
27534;DHT22;14973;51.460;7.008;2023-04-10T03:21:15;9.10;99.90
27534;DHT22;14973;51.460;7.008;2023-04-10T03:23:41;9.20;99.90
27534;DHT22;14973;51.460;7.008;2023-04-10T03:26:06;9.10;99.90
27534;DHT22;14973;51.460;7.008;2023-04-10T03:28:32;9.20;99.90
27534;DHT22;14973;51.460;7.008;2023-04-10T03:31:00;9.20;99.90
27534;DHT22;14973;51.460;7.008;2023-04-10T03:33:26;9.20;99.90
27534;DHT22;14973;51.460;7.008;2023-04-10T03:35:51;9.30;99.90
27534;DHT22;14973;51.460;7.008;2023-04-10T03:38:17;9.20;99.90
27534;DHT22;14973;51.460;7.008;2023-04-10T03:40:43;9.20;99.90
27534;DHT22;14973;51.460;7.008;2023-04-10T03:43:08;9.20;99.90
27534;DHT22;14973;51.460;7.008;2023-04-10T03:45:34;9.20;99.90
27534;DHT22;14973;51.460;7.008;2023-04-10T03:47:59;9.10;99.90
27534;DHT22;14973;51.460;7.008;2023-04-10T03:50:25;9.00;99.90
27534;DHT22;14973;51.460;7.008;2023-04-10T03:52:50;9.00;99.90
27534;DHT22;14973;51.460;7.008;2023-04-10T03:55:16;9.00;99.90
27534;DHT22;14973;51.460;7.008;2023-04-10T03:57:45;8.90;99.90
27534;DHT22;14973;51.460;7.008;2023-04-10T04:00:14;8.80;99.90
27534;DHT22;14973;51.460;7.008;2023-04-10T04:02:41;8.70;99.90
27534;DHT22;14973;51.460;7.008;2023-04-10T04:05:06;8.60;99.90
27534;DHT22;14973;51.460;7.008;2023-04-10T04:07:32;8.50;99.90
27534;DHT22;14973;51.460;7.008;2023-04-10T04:09:58;8.50;99.90
27534;DHT22;14973;51.460;7.008;2023-04-10T04:12:24;8.50;99.90
27534;DHT22;14973;51.460;7.008;2023-04-10T04:14:50;8.60;99.90
27534;DHT22;14973;51.460;7.008;2023-04-10T04:17:15;8.50;99.90
27534;DHT22;14973;51.460;7.008;2023-04-10T04:19:41;8.50;99.90
27534;DHT22;14973;51.460;7.008;2023-04-10T04:22:06;8.40;99.90
27534;DHT22;14973;51.460;7.008;2023-04-10T04:24:31;8.40;99.90
27534;DHT22;14973;51.460;7.008;2023-04-10T04:26:57;8.60;99.90
27534;DHT22;14973;51.460;7.008;2023-04-10T04:29:22;8.60;99.90
27534;DHT22;14973;51.460;7.008;2023-04-10T04:31:48;8.70;99.90
27534;DHT22;14973;51.460;7.008;2023-04-10T04:34:13;8.70;99.90
27534;DHT22;14973;51.460;7.008;2023-04-10T04:36:39;8.70;99.90
27534;DHT22;14973;51.460;7.008;2023-04-10T04:39:04;8.50;99.90
27534;DHT22;14973;51.460;7.008;2023-04-10T04:41:30;8.60;99.90
27534;DHT22;14973;51.460;7.008;2023-04-10T04:43:57;8.70;99.90
27534;DHT22;14973;51.460;7.008;2023-04-10T04:46:22;8.90;99.90
27534;DHT22;14973;51.460;7.008;2023-04-10T04:48:47;8.90;99.90
27534;DHT22;14973;51.460;7.008;2023-04-10T04:51:13;8.80;99.90
27534;DHT22;14973;51.460;7.008;2023-04-10T04:53:38;8.90;99.90
27534;DHT22;14973;51.460;7.008;2023-04-10T04:56:04;8.80;99.90
27534;DHT22;14973;51.460;7.008;2023-04-10T04:58:30;8.70;99.90
27534;DHT22;14973;51.460;7.008;2023-04-10T05:00:55;8.70;99.90
27534;DHT22;14973;51.460;7.008;2023-04-10T05:03:21;8.70;99.90
27534;DHT22;14973;51.460;7.008;2023-04-10T05:05:46;8.60;99.90
27534;DHT22;14973;51.460;7.008;2023-04-10T05:08:12;8.60;99.90
27534;DHT22;14973;51.460;7.008;2023-04-10T05:10:37;8.70;99.90
27534;DHT22;14973;51.460;7.008;2023-04-10T05:13:03;8.70;99.90
27534;DHT22;14973;51.460;7.008;2023-04-10T05:15:28;8.80;99.90
27534;DHT22;14973;51.460;7.008;2023-04-10T05:17:54;9.00;99.90
27534;DHT22;14973;51.460;7.008;2023-04-10T05:20:19;9.10;99.90
27534;DHT22;14973;51.460;7.008;2023-04-10T05:22:46;9.20;99.90
27534;DHT22;14973;51.460;7.008;2023-04-10T05:25:11;9.30;99.90
27534;DHT22;14973;51.460;7.008;2023-04-10T05:27:37;9.40;99.90
27534;DHT22;14973;51.460;7.008;2023-04-10T05:30:02;9.60;99.90
27534;DHT22;14973;51.460;7.008;2023-04-10T05:32:28;9.70;99.90
27534;DHT22;14973;51.460;7.008;2023-04-10T05:34:53;9.90;99.90
27534;DHT22;14973;51.460;7.008;2023-04-10T05:37:19;10.00;99.90
27534;DHT22;14973;51.460;7.008;2023-04-10T05:39:44;10.20;99.90
27534;DHT22;14973;51.460;7.008;2023-04-10T05:42:10;10.30;99.90
27534;DHT22;14973;51.460;7.008;2023-04-10T05:44:36;10.50;99.90
27534;DHT22;14973;51.460;7.008;2023-04-10T05:47:01;10.60;99.90
27534;DHT22;14973;51.460;7.008;2023-04-10T05:49:27;10.80;99.90
27534;DHT22;14973;51.460;7.008;2023-04-10T05:51:52;10.80;99.90
27534;DHT22;14973;51.460;7.008;2023-04-10T05:54:18;10.90;99.90
27534;DHT22;14973;51.460;7.008;2023-04-10T05:56:43;10.90;99.90
27534;DHT22;14973;51.460;7.008;2023-04-10T05:59:09;11.10;99.90
27534;DHT22;14973;51.460;7.008;2023-04-10T06:01:34;11.30;99.90
27534;DHT22;14973;51.460;7.008;2023-04-10T06:04:00;11.40;99.90
27534;DHT22;14973;51.460;7.008;2023-04-10T06:06:27;11.60;99.90
27534;DHT22;14973;51.460;7.008;2023-04-10T06:08:53;11.80;99.90
27534;DHT22;14973;51.460;7.008;2023-04-10T06:11:19;12.00;99.90
27534;DHT22;14973;51.460;7.008;2023-04-10T06:13:45;12.40;99.90
27534;DHT22;14973;51.460;7.008;2023-04-10T06:16:10;12.60;99.90
27534;DHT22;14973;51.460;7.008;2023-04-10T06:18:36;12.90;99.90
27534;DHT22;14973;51.460;7.008;2023-04-10T06:21:02;13.20;99.90
27534;DHT22;14973;51.460;7.008;2023-04-10T06:23:27;13.70;99.90
27534;DHT22;14973;51.460;7.008;2023-04-10T06:25:53;14.50;99.90
27534;DHT22;14973;51.460;7.008;2023-04-10T06:28:19;15.40;99.50
27534;DHT22;14973;51.460;7.008;2023-04-10T06:30:45;16.00;98.10
27534;DHT22;14973;51.460;7.008;2023-04-10T06:33:10;16.70;96.70
27534;DHT22;14973;51.460;7.008;2023-04-10T06:35:36;17.00;95.50
27534;DHT22;14973;51.460;7.008;2023-04-10T06:38:02;17.10;95.00
27534;DHT22;14973;51.460;7.008;2023-04-10T06:40:27;17.20;94.50
27534;DHT22;14973;51.460;7.008;2023-04-10T06:42:54;17.10;94.30
27534;DHT22;14973;51.460;7.008;2023-04-10T06:45:19;17.00;94.10
27534;DHT22;14973;51.460;7.008;2023-04-10T06:47:45;17.20;93.90
27534;DHT22;14973;51.460;7.008;2023-04-10T06:50:11;17.70;93.40
27534;DHT22;14973;51.460;7.008;2023-04-10T06:52:36;18.70;92.00
27534;DHT22;14973;51.460;7.008;2023-04-10T06:55:02;19.50;90.60
27534;DHT22;14973;51.460;7.008;2023-04-10T06:57:27;20.60;88.50
27534;DHT22;14973;51.460;7.008;2023-04-10T06:59:53;21.30;84.30
27534;DHT22;14973;51.460;7.008;2023-04-10T07:02:18;20.90;83.80
27534;DHT22;14973;51.460;7.008;2023-04-10T07:04:44;21.00;82.30
27534;DHT22;14973;51.460;7.008;2023-04-10T07:07:10;20.80;83.10
27534;DHT22;14973;51.460;7.008;2023-04-10T07:09:37;20.70;82.00
27534;DHT22;14973;51.460;7.008;2023-04-10T07:12:03;20.60;83.10
27534;DHT22;14973;51.460;7.008;2023-04-10T07:14:30;20.40;82.70
27534;DHT22;14973;51.460;7.008;2023-04-10T07:16:56;20.30;83.00
27534;DHT22;14973;51.460;7.008;2023-04-10T07:19:22;20.40;82.70
27534;DHT22;14973;51.460;7.008;2023-04-10T07:21:47;20.60;82.30
27534;DHT22;14973;51.460;7.008;2023-04-10T07:24:15;20.00;82.10
27534;DHT22;14973;51.460;7.008;2023-04-10T07:26:40;19.30;84.40
27534;DHT22;14973;51.460;7.008;2023-04-10T07:29:06;19.20;85.00
27534;DHT22;14973;51.460;7.008;2023-04-10T07:31:31;19.40;84.90
27534;DHT22;14973;51.460;7.008;2023-04-10T07:33:57;19.70;83.60
27534;DHT22;14973;51.460;7.008;2023-04-10T07:36:22;19.60;83.40
27534;DHT22;14973;51.460;7.008;2023-04-10T07:38:48;18.90;84.70
27534;DHT22;14973;51.460;7.008;2023-04-10T07:41:13;19.30;84.70
27534;DHT22;14973;51.460;7.008;2023-04-10T07:43:39;19.60;83.20
27534;DHT22;14973;51.460;7.008;2023-04-10T07:46:05;18.90;84.10
27534;DHT22;14973;51.460;7.008;2023-04-10T07:48:31;18.80;84.80
27534;DHT22;14973;51.460;7.008;2023-04-10T07:50:56;19.10;84.40
27534;DHT22;14973;51.460;7.008;2023-04-10T07:53:23;18.60;84.50
27534;DHT22;14973;51.460;7.008;2023-04-10T07:55:48;18.10;86.30
27534;DHT22;14973;51.460;7.008;2023-04-10T07:58:14;18.30;86.20
27534;DHT22;14973;51.460;7.008;2023-04-10T08:00:40;18.40;85.70
27534;DHT22;14973;51.460;7.008;2023-04-10T08:03:06;19.00;84.40
27534;DHT22;14973;51.460;7.008;2023-04-10T08:05:32;18.80;84.80
27534;DHT22;14973;51.460;7.008;2023-04-10T08:07:58;19.40;82.80
27534;DHT22;14973;51.460;7.008;2023-04-10T08:10:23;20.20;81.80
27534;DHT22;14973;51.460;7.008;2023-04-10T08:12:49;21.20;80.00
27534;DHT22;14973;51.460;7.008;2023-04-10T08:15:14;22.50;77.00
27534;DHT22;14973;51.460;7.008;2023-04-10T08:17:40;23.30;74.50
27534;DHT22;14973;51.460;7.008;2023-04-10T08:20:06;24.40;72.40
27534;DHT22;14973;51.460;7.008;2023-04-10T08:22:31;24.60;71.10
27534;DHT22;14973;51.460;7.008;2023-04-10T08:24:57;24.40;70.40
27534;DHT22;14973;51.460;7.008;2023-04-10T08:27:22;23.90;70.20
27534;DHT22;14973;51.460;7.008;2023-04-10T08:29:48;23.00;72.10
27534;DHT22;14973;51.460;7.008;2023-04-10T08:32:13;22.20;72.70
27534;DHT22;14973;51.460;7.008;2023-04-10T08:34:39;21.90;73.30
27534;DHT22;14973;51.460;7.008;2023-04-10T08:37:05;22.20;73.50
27534;DHT22;14973;51.460;7.008;2023-04-10T08:39:33;22.20;73.30
27534;DHT22;14973;51.460;7.008;2023-04-10T08:41:59;22.10;73.30
27534;DHT22;14973;51.460;7.008;2023-04-10T08:44:24;22.60;72.90
27534;DHT22;14973;51.460;7.008;2023-04-10T08:46:50;23.00;71.20
27534;DHT22;14973;51.460;7.008;2023-04-10T08:49:16;22.70;72.10
27534;DHT22;14973;51.460;7.008;2023-04-10T08:51:47;22.00;73.00
27534;DHT22;14973;51.460;7.008;2023-04-10T08:54:25;21.30;73.90
27534;DHT22;14973;51.460;7.008;2023-04-10T08:56:52;20.70;75.20
27534;DHT22;14973;51.460;7.008;2023-04-10T08:59:18;20.00;76.00
27534;DHT22;14973;51.460;7.008;2023-04-10T09:01:44;19.70;77.30
27534;DHT22;14973;51.460;7.008;2023-04-10T09:04:11;19.20;78.10
27534;DHT22;14973;51.460;7.008;2023-04-10T09:06:36;19.20;79.30
27534;DHT22;14973;51.460;7.008;2023-04-10T09:09:02;19.10;78.50
27534;DHT22;14973;51.460;7.008;2023-04-10T09:14:19;19.30;78.90
27534;DHT22;14973;51.460;7.008;2023-04-10T09:16:44;20.00;78.50
27534;DHT22;14973;51.460;7.008;2023-04-10T09:19:10;20.40;76.10
27534;DHT22;14973;51.460;7.008;2023-04-10T09:21:35;19.90;77.60
27534;DHT22;14973;51.460;7.008;2023-04-10T09:24:01;19.90;77.60
27534;DHT22;14973;51.460;7.008;2023-04-10T09:26:28;20.10;77.60
27534;DHT22;14973;51.460;7.008;2023-04-10T09:29:00;20.20;76.70
27534;DHT22;14973;51.460;7.008;2023-04-10T09:34:08;20.10;77.20
27534;DHT22;14973;51.460;7.008;2023-04-10T09:36:34;20.40;76.90
27534;DHT22;14973;51.460;7.008;2023-04-10T09:39:01;20.30;76.60
27534;DHT22;14973;51.460;7.008;2023-04-10T09:41:27;20.40;76.10
27534;DHT22;14973;51.460;7.008;2023-04-10T09:46:31;20.20;76.60
27534;DHT22;14973;51.460;7.008;2023-04-10T09:48:56;19.90;77.10
27534;DHT22;14973;51.460;7.008;2023-04-10T09:51:26;19.70;78.10
27534;DHT22;14973;51.460;7.008;2023-04-10T09:53:52;19.50;78.30
27534;DHT22;14973;51.460;7.008;2023-04-10T09:56:18;19.50;78.50
27534;DHT22;14973;51.460;7.008;2023-04-10T09:58:44;19.20;79.40
27534;DHT22;14973;51.460;7.008;2023-04-10T10:01:09;19.20;79.30
27534;DHT22;14973;51.460;7.008;2023-04-10T10:03:36;19.40;79.40
27534;DHT22;14973;51.460;7.008;2023-04-10T10:06:03;19.60;79.10
27534;DHT22;14973;51.460;7.008;2023-04-10T10:08:29;19.70;78.50
27534;DHT22;14973;51.460;7.008;2023-04-10T10:10:57;19.80;78.60
27534;DHT22;14973;51.460;7.008;2023-04-10T10:13:46;19.90;78.30
27534;DHT22;14973;51.460;7.008;2023-04-10T10:19:11;19.50;77.50
27534;DHT22;14973;51.460;7.008;2023-04-10T10:21:38;19.40;78.90
27534;DHT22;14973;51.460;7.008;2023-04-10T10:24:06;19.20;78.60
27534;DHT22;14973;51.460;7.008;2023-04-10T10:26:32;18.80;79.80
27534;DHT22;14973;51.460;7.008;2023-04-10T10:29:01;18.60;80.30
27534;DHT22;14973;51.460;7.008;2023-04-10T10:31:27;18.80;80.80
27534;DHT22;14973;51.460;7.008;2023-04-10T10:33:56;19.10;79.20
27534;DHT22;14973;51.460;7.008;2023-04-10T10:36:22;19.00;78.70
27534;DHT22;14973;51.460;7.008;2023-04-10T10:44:25;18.90;78.70
27534;DHT22;14973;51.460;7.008;2023-04-10T10:47:13;19.20;78.80
27534;DHT22;14973;51.460;7.008;2023-04-10T10:49:58;19.40;78.40
27534;DHT22;14973;51.460;7.008;2023-04-10T10:57:49;18.80;77.60
27534;DHT22;14973;51.460;7.008;2023-04-10T11:00:16;18.80;78.00
27534;DHT22;14973;51.460;7.008;2023-04-10T11:02:42;18.90;78.50
27534;DHT22;14973;51.460;7.008;2023-04-10T11:05:08;18.80;78.50
27534;DHT22;14973;51.460;7.008;2023-04-10T11:08:06;18.90;77.20
27534;DHT22;14973;51.460;7.008;2023-04-10T11:13:16;18.90;77.30
27534;DHT22;14973;51.460;7.008;2023-04-10T11:15:42;18.70;77.40
27534;DHT22;14973;51.460;7.008;2023-04-10T11:18:07;18.70;77.50
27534;DHT22;14973;51.460;7.008;2023-04-10T11:20:33;19.10;77.50
27534;DHT22;14973;51.460;7.008;2023-04-10T11:23:20;19.30;76.90
27534;DHT22;14973;51.460;7.008;2023-04-10T11:25:53;19.50;75.90
27534;DHT22;14973;51.460;7.008;2023-04-10T11:31:12;19.30;77.20
27534;DHT22;14973;51.460;7.008;2023-04-10T11:33:39;19.30;75.20
27534;DHT22;14973;51.460;7.008;2023-04-10T11:36:05;19.30;75.70
27534;DHT22;14973;51.460;7.008;2023-04-10T11:38:30;18.80;75.40
27534;DHT22;14973;51.460;7.008;2023-04-10T11:41:03;18.70;75.60
27534;DHT22;14973;51.460;7.008;2023-04-10T11:43:29;18.50;76.30
27534;DHT22;14973;51.460;7.008;2023-04-10T11:45:58;18.60;76.10
27534;DHT22;14973;51.460;7.008;2023-04-10T11:48:24;18.90;77.30
27534;DHT22;14973;51.460;7.008;2023-04-10T11:50:49;19.20;76.20
27534;DHT22;14973;51.460;7.008;2023-04-10T11:53:18;19.60;76.00
27534;DHT22;14973;51.460;7.008;2023-04-10T11:55:44;20.00;75.10
27534;DHT22;14973;51.460;7.008;2023-04-10T11:58:24;20.30;74.80
27534;DHT22;14973;51.460;7.008;2023-04-10T12:03:33;20.30;73.00
27534;DHT22;14973;51.460;7.008;2023-04-10T12:05:59;19.90;73.50
27534;DHT22;14973;51.460;7.008;2023-04-10T12:08:32;19.90;74.60
27534;DHT22;14973;51.460;7.008;2023-04-10T12:10:58;19.80;74.70
27534;DHT22;14973;51.460;7.008;2023-04-10T12:13:27;19.80;74.50
27534;DHT22;14973;51.460;7.008;2023-04-10T12:15:52;19.70;74.40
27534;DHT22;14973;51.460;7.008;2023-04-10T12:18:21;19.70;75.80
27534;DHT22;14973;51.460;7.008;2023-04-10T12:20:47;19.90;75.20
27534;DHT22;14973;51.460;7.008;2023-04-10T12:23:13;20.20;74.20
27534;DHT22;14973;51.460;7.008;2023-04-10T12:25:38;20.40;73.90
27534;DHT22;14973;51.460;7.008;2023-04-10T12:28:05;20.60;72.90
27534;DHT22;14973;51.460;7.008;2023-04-10T12:30:32;20.30;72.70
27534;DHT22;14973;51.460;7.008;2023-04-10T12:32:57;20.20;73.50
27534;DHT22;14973;51.460;7.008;2023-04-10T12:35:37;20.30;72.60
27534;DHT22;14973;51.460;7.008;2023-04-10T12:38:03;20.20;73.30
27534;DHT22;14973;51.460;7.008;2023-04-10T12:40:28;20.00;73.80
27534;DHT22;14973;51.460;7.008;2023-04-10T12:42:54;20.10;74.40
27534;DHT22;14973;51.460;7.008;2023-04-10T12:45:19;20.00;74.30
27534;DHT22;14973;51.460;7.008;2023-04-10T12:47:46;20.00;73.80
27534;DHT22;14973;51.460;7.008;2023-04-10T12:50:13;19.80;72.90
27534;DHT22;14973;51.460;7.008;2023-04-10T12:52:40;19.50;74.20
27534;DHT22;14973;51.460;7.008;2023-04-10T12:57:35;19.40;75.20
27534;DHT22;14973;51.460;7.008;2023-04-10T13:00:01;19.50;75.40
27534;DHT22;14973;51.460;7.008;2023-04-10T13:02:27;19.60;75.00
27534;DHT22;14973;51.460;7.008;2023-04-10T13:04:53;19.70;74.20
27534;DHT22;14973;51.460;7.008;2023-04-10T13:07:19;19.80;75.40
27534;DHT22;14973;51.460;7.008;2023-04-10T13:09:44;19.70;74.40
27534;DHT22;14973;51.460;7.008;2023-04-10T13:12:11;19.60;74.00
27534;DHT22;14973;51.460;7.008;2023-04-10T13:14:37;19.60;74.40
27534;DHT22;14973;51.460;7.008;2023-04-10T13:17:02;19.50;74.60
27534;DHT22;14973;51.460;7.008;2023-04-10T13:19:28;19.70;74.60
27534;DHT22;14973;51.460;7.008;2023-04-10T13:21:53;19.80;74.20
27534;DHT22;14973;51.460;7.008;2023-04-10T13:24:19;20.00;74.10
27534;DHT22;14973;51.460;7.008;2023-04-10T13:26:44;20.10;73.60
27534;DHT22;14973;51.460;7.008;2023-04-10T13:29:10;20.10;73.20
27534;DHT22;14973;51.460;7.008;2023-04-10T13:31:35;20.20;74.00
27534;DHT22;14973;51.460;7.008;2023-04-10T13:34:01;20.30;73.90
27534;DHT22;14973;51.460;7.008;2023-04-10T13:36:26;20.20;73.90
27534;DHT22;14973;51.460;7.008;2023-04-10T13:38:52;19.90;73.70
27534;DHT22;14973;51.460;7.008;2023-04-10T13:41:17;19.40;74.70
27534;DHT22;14973;51.460;7.008;2023-04-10T13:43:44;19.40;75.00
27534;DHT22;14973;51.460;7.008;2023-04-10T13:46:10;19.40;74.80
27534;DHT22;14973;51.460;7.008;2023-04-10T13:48:35;19.30;74.60
27534;DHT22;14973;51.460;7.008;2023-04-10T13:51:05;19.20;74.80
27534;DHT22;14973;51.460;7.008;2023-04-10T13:53:31;19.30;75.40
27534;DHT22;14973;51.460;7.008;2023-04-10T13:55:56;19.30;74.90
27534;DHT22;14973;51.460;7.008;2023-04-10T13:58:22;19.30;75.30
27534;DHT22;14973;51.460;7.008;2023-04-10T14:00:48;19.30;75.40
27534;DHT22;14973;51.460;7.008;2023-04-10T14:03:13;19.40;75.20
27534;DHT22;14973;51.460;7.008;2023-04-10T14:05:39;19.30;74.80
27534;DHT22;14973;51.460;7.008;2023-04-10T14:08:04;19.10;75.90
27534;DHT22;14973;51.460;7.008;2023-04-10T14:10:30;19.00;76.10
27534;DHT22;14973;51.460;7.008;2023-04-10T14:12:56;19.00;76.60
27534;DHT22;14973;51.460;7.008;2023-04-10T14:15:21;19.00;76.60
27534;DHT22;14973;51.460;7.008;2023-04-10T14:17:47;19.10;76.10
27534;DHT22;14973;51.460;7.008;2023-04-10T14:20:13;19.00;75.80
27534;DHT22;14973;51.460;7.008;2023-04-10T14:22:38;19.00;76.40
27534;DHT22;14973;51.460;7.008;2023-04-10T14:25:04;19.00;76.30
27534;DHT22;14973;51.460;7.008;2023-04-10T14:27:31;18.90;75.90
27534;DHT22;14973;51.460;7.008;2023-04-10T14:29:56;18.80;77.20
27534;DHT22;14973;51.460;7.008;2023-04-10T14:32:22;18.90;76.50
27534;DHT22;14973;51.460;7.008;2023-04-10T14:34:47;18.80;77.30
27534;DHT22;14973;51.460;7.008;2023-04-10T14:37:13;18.80;76.80
27534;DHT22;14973;51.460;7.008;2023-04-10T14:39:39;18.70;77.40
27534;DHT22;14973;51.460;7.008;2023-04-10T14:42:04;18.60;77.50
27534;DHT22;14973;51.460;7.008;2023-04-10T14:44:30;18.50;77.90
27534;DHT22;14973;51.460;7.008;2023-04-10T14:46:55;18.30;78.00
27534;DHT22;14973;51.460;7.008;2023-04-10T14:49:21;18.30;78.80
27534;DHT22;14973;51.460;7.008;2023-04-10T14:51:47;18.30;78.80
27534;DHT22;14973;51.460;7.008;2023-04-10T14:54:13;18.40;78.50
27534;DHT22;14973;51.460;7.008;2023-04-10T14:56:41;18.40;78.80
27534;DHT22;14973;51.460;7.008;2023-04-10T14:59:06;18.40;78.80
27534;DHT22;14973;51.460;7.008;2023-04-10T15:01:33;18.50;79.30
27534;DHT22;14973;51.460;7.008;2023-04-10T15:03:59;18.40;79.60
27534;DHT22;14973;51.460;7.008;2023-04-10T15:06:25;18.30;80.00
27534;DHT22;14973;51.460;7.008;2023-04-10T15:08:53;18.30;80.10
27534;DHT22;14973;51.460;7.008;2023-04-10T15:11:19;18.30;80.30
27534;DHT22;14973;51.460;7.008;2023-04-10T15:13:45;18.20;80.80
27534;DHT22;14973;51.460;7.008;2023-04-10T15:16:11;18.30;80.60
27534;DHT22;14973;51.460;7.008;2023-04-10T15:18:36;18.30;81.00
27534;DHT22;14973;51.460;7.008;2023-04-10T15:21:02;18.30;81.50
27534;DHT22;14973;51.460;7.008;2023-04-10T15:23:28;18.30;81.40
27534;DHT22;14973;51.460;7.008;2023-04-10T15:25:53;18.40;81.30
27534;DHT22;14973;51.460;7.008;2023-04-10T15:28:19;18.40;82.60
27534;DHT22;14973;51.460;7.008;2023-04-10T15:30:45;18.40;81.90
27534;DHT22;14973;51.460;7.008;2023-04-10T15:33:12;18.50;81.00
27534;DHT22;14973;51.460;7.008;2023-04-10T15:35:38;18.50;81.30
27534;DHT22;14973;51.460;7.008;2023-04-10T15:38:04;18.50;79.80
27534;DHT22;14973;51.460;7.008;2023-04-10T15:40:30;18.60;79.90
27534;DHT22;14973;51.460;7.008;2023-04-10T15:42:56;18.50;80.00
27534;DHT22;14973;51.460;7.008;2023-04-10T15:45:21;18.50;79.80
27534;DHT22;14973;51.460;7.008;2023-04-10T15:47:47;18.60;79.80
27534;DHT22;14973;51.460;7.008;2023-04-10T15:50:13;18.70;79.60
27534;DHT22;14973;51.460;7.008;2023-04-10T15:52:38;18.60;80.10
27534;DHT22;14973;51.460;7.008;2023-04-10T15:55:04;18.50;79.80
27534;DHT22;14973;51.460;7.008;2023-04-10T15:57:30;18.30;80.60
27534;DHT22;14973;51.460;7.008;2023-04-10T15:59:55;18.40;80.80
27534;DHT22;14973;51.460;7.008;2023-04-10T16:02:23;18.30;80.20
27534;DHT22;14973;51.460;7.008;2023-04-10T16:04:48;18.30;81.00
27534;DHT22;14973;51.460;7.008;2023-04-10T16:07:14;18.20;82.10
27534;DHT22;14973;51.460;7.008;2023-04-10T16:09:40;18.10;83.20